NCAR-RAP Real-Time Weather Data

Output produced by METARs form (12 August 2020  18:55 UTC)
found at http://weather.rap.ucar.edu/surface/
 
KORF 121851Z 17009KT 10SM SCT041 SCT055 33/24 A2998 RMK AO2 SLP152 T03330239
KORF 121751Z 14007KT 10SM FEW041 FEW050 33/23 A3000 RMK AO2 SLP158 T03330233 10339 20261 58013
KORF 121651Z 20006KT 10SM SCT039 33/24 A3002 RMK AO2 SLP164 T03330239
KORF 121551Z VRB03KT 10SM CLR 31/25 A3003 RMK AO2 SLP168 T03110250
KORF 121451Z 20004KT 10SM CLR 31/25 A3004 RMK AO2 SLP171 T03060250 50000
KORF 121351Z 22004KT 10SM CLR 29/25 A3004 RMK AO2 SLP172 T02890250
KORF 121251Z 17004KT 10SM BKN051 27/25 A3004 RMK AO2 SLP173 T02720250
KORF 121151Z 17004KT 10SM CLR 26/24 A3004 RMK AO2 SLP171 70141 T02610244 10261 20244 51015
KORF 121051Z 00000KT 10SM CLR 25/24 A3002 RMK AO2 SLP164 T02500239
KORF 120951Z AUTO 16004KT 10SM CLR 24/23 A3001 RMK AO2 SLP163 T02440233 TSNO
KORF 120851Z AUTO 18004KT 10SM CLR 25/23 A2999 RMK AO2 SLP156 T02500233 53001
KORF 120751Z AUTO 20003KT 10SM CLR 25/23 A2999 RMK AO2 SLP155 T02500233
KORF 120651Z AUTO 19004KT 10SM CLR 25/23 A2999 RMK AO2 SLP154 T02500233
KORF 120551Z AUTO 22006KT 10SM CLR 25/23 A2999 RMK AO2 SLP155 T02500233 10267 20250 51001
KORF 120451Z AUTO 23006KT 10SM CLR 25/23 A2999 RMK AO2 SLP155 T02500233 403330239
KORF 120351Z AUTO 19006KT 10SM CLR 26/23 A2999 RMK AO2 SLP154 T02560233
KORF 120251Z 19004KT 10SM CLR 25/23 A2999 RMK AO2 SLP154 T02500233 50013
KORF 120151Z 20006KT 10SM FEW110 26/23 A2999 RMK AO2 SLP155 T02560233
KORF 120051Z 17006KT 10SM FEW100 26/23 A2997 RMK AO2 SLP147 T02610233
KORF 112351Z 22003KT 10SM FEW037 FEW095 26/24 A2995 RMK AO2 RAB22E36 SLP141 P0000 60141 T02560239 10328 20239 58006
KORF 112340Z 18003KT 10SM FEW025 SCT100 26/24 A2994 RMK AO2 RAB22E36 P0000 T02560239
KORF 112319Z 17007KT 10SM BKN027 BKN070 OVC110 26/23 A2994 RMK AO2 T02560233
KORF 112251Z 24004KT 10SM FEW085 25/23 A2996 RMK AO2 LTG DSNT W RAE27 TSE00 SLP144 P0003 T02500233
KORF 112221Z 22007KT 10SM -RA FEW075 FEW090 BKN110 24/23 A2996 RMK AO2 LTG DSNT SW AND W TSE00 P0003 T02440228
KORF 112206Z 20013KT 7SM VCTS RA FEW047 SCT085 OVC110 24/22 A2996 RMK AO2 LTG DSNT SW AND W TSE00 P0002 T02440217
KORF 112159Z 27007KT 6SM -TSRA SCT047 BKN085 OVC100 24/21 A2997 RMK AO2 LTG DSNT SW AND W P0002 T02440211
KORF 112151Z 25008KT 2 1/2SM TSRA BKN047 BKN070 OVC100 24/21 A2998 RMK AO2 LTG DSNT SW AND W SLP151 P0119 T02440211
KORF 112135Z 25011KT 1/2SM R05/2200V5000FT +TSRA FG OVC036 24/22 A2998 RMK AO2 LTG DSNT SW P0099 T02440222
KORF 112127Z 26011KT 1/2SM R05/2200VP6000FT +TSRA FG BKN024 BKN047 OVC075 24/23 A2999 RMK AO2 LTG DSNT S-W P0092 T02440228
KORF 112118Z 21010G19KT 1/2SM R05/1800V3500FT +TSRA FG BKN014 BKN048 OVC080 25/23 A2999 RMK AO2 LTG DSNT S AND SW P0058 T02500228
KORF 112115Z 20010G19KT 1/2SM R05/1800V3500FT +TSRA FG SCT018 BKN048 OVC100 25/23 A2999 RMK AO2 LTG DSNT S AND SW PRESRR P0032 T02500228